createdAt,value
2019-03-01T00:00:40.661Z,57.30
2019-03-01T00:01:40.645Z,54.30
2019-03-01T00:02:40.651Z,59.00
2019-03-01T00:03:40.629Z,57.90
2019-03-01T00:04:40.608Z,53.70
2019-03-01T00:05:40.597Z,58.50
2019-03-01T00:06:40.609Z,56.20
2019-03-01T00:07:40.579Z,57.40
2019-03-01T00:08:40.590Z,53.20
2019-03-01T00:09:40.549Z,56.80
2019-03-01T00:10:40.542Z,58.20
2019-03-01T00:11:40.526Z,60.50
2019-03-01T00:12:40.516Z,59.60
2019-03-01T00:13:40.536Z,53.50
2019-03-01T00:14:40.492Z,55.70
2019-03-01T00:15:40.485Z,54.10
2019-03-01T00:16:40.474Z,59.90
2019-03-01T00:17:40.459Z,57.80
2019-03-01T00:18:40.449Z,58.40
2019-03-01T00:19:40.457Z,58.90
2019-03-01T00:20:40.429Z,58.20
2019-03-01T00:21:40.413Z,56.60
2019-03-01T00:22:40.411Z,59.70
2019-03-01T00:23:40.397Z,57.50
2019-03-01T00:24:40.402Z,53.40
2019-03-01T00:25:40.376Z,58.20
2019-03-01T00:26:40.356Z,55.40
2019-03-01T00:27:40.355Z,55.30
2019-03-01T00:28:40.332Z,53.00
2019-03-01T00:29:40.342Z,62.30
2019-03-01T00:30:40.311Z,56.80
2019-03-01T00:31:40.303Z,54.90
2019-03-01T00:32:40.302Z,54.80
2019-03-01T00:33:40.287Z,57.70
2019-03-01T00:34:40.306Z,57.90
2019-03-01T00:35:40.259Z,54.30
2019-03-01T00:36:40.243Z,56.30
2019-03-01T00:37:40.236Z,54.90
2019-03-01T00:38:40.221Z,57.20
2019-03-01T00:39:40.236Z,59.20
2019-03-01T00:40:40.200Z,60.00
2019-03-01T00:41:40.194Z,56.30
2019-03-01T00:42:40.188Z,59.40
2019-03-01T00:43:40.196Z,55.80
2019-03-01T00:44:40.183Z,54.00
2019-03-01T00:45:40.146Z,54.90
2019-03-01T00:46:40.134Z,50.70
2019-03-01T00:47:40.121Z,52.30
2019-03-01T00:48:40.113Z,48.80
2019-03-01T00:49:40.158Z,53.60
2019-03-01T00:50:40.140Z,52.00
2019-03-01T00:51:40.080Z,55.80
2019-03-01T00:52:40.070Z,53.20
2019-03-01T00:53:40.065Z,52.60
2019-03-01T00:54:40.066Z,54.00
2019-03-01T00:55:40.054Z,63.90
2019-03-01T00:56:40.017Z,53.70
2019-03-01T00:57:40.018Z,56.00
2019-03-01T00:58:39.993Z,54.40
2019-03-01T00:59:39.990Z,56.50
2019-03-01T01:00:40.054Z,56.80
2019-03-01T01:01:39.965Z,53.20
2019-03-01T01:02:39.948Z,53.40
2019-03-01T01:03:39.939Z,50.30
2019-03-01T01:04:39.930Z,54.20
2019-03-01T01:05:39.933Z,50.20
2019-03-01T01:06:39.908Z,50.70
2019-03-01T01:07:39.901Z,52.00
2019-03-01T01:08:39.886Z,50.70
2019-03-01T01:09:39.878Z,52.40
2019-03-01T01:10:39.882Z,54.80
2019-03-01T01:11:39.860Z,50.50
2019-03-01T01:12:39.837Z,49.60
2019-03-01T01:13:39.841Z,51.10
2019-03-01T01:14:39.816Z,50.60
2019-03-01T01:15:39.847Z,53.00
2019-03-01T01:16:39.792Z,50.80
2019-03-01T01:17:39.822Z,50.00
2019-03-01T01:18:39.776Z,48.00
2019-03-01T01:19:39.756Z,45.80
2019-03-01T01:20:39.778Z,50.60
2019-03-01T01:21:39.740Z,48.30
2019-03-01T01:22:39.743Z,46.10
2019-03-01T01:23:39.718Z,46.00
2019-03-01T01:24:39.703Z,49.00
2019-03-01T01:25:39.727Z,45.20
2019-03-01T01:26:39.689Z,45.80
2019-03-01T01:27:41.049Z,48.20
2019-03-01T01:28:39.652Z,44.30
2019-03-01T01:29:39.644Z,49.20
2019-03-01T01:30:39.639Z,46.00
2019-03-01T01:31:39.639Z,47.30
2019-03-01T01:32:39.641Z,47.80
2019-03-01T01:33:39.611Z,46.90
2019-03-01T01:34:39.583Z,48.30
2019-03-01T01:35:39.574Z,44.50
2019-03-01T01:36:39.600Z,47.10
2019-03-01T01:37:39.556Z,49.30
2019-03-01T01:38:39.557Z,50.50
2019-03-01T01:39:39.530Z,50.20
2019-03-01T01:40:39.517Z,49.90
2019-03-01T01:41:39.541Z,48.10
2019-03-01T01:42:39.496Z,51.80
2019-03-01T01:43:39.488Z,50.00
2019-03-01T01:44:39.468Z,56.40
2019-03-01T01:45:39.469Z,54.20
2019-03-01T01:46:39.466Z,60.10
2019-03-01T01:47:39.447Z,55.80
2019-03-01T01:48:39.425Z,54.40
2019-03-01T01:49:39.420Z,55.80
2019-03-01T01:50:39.418Z,53.80
2019-03-01T01:51:39.424Z,63.70
2019-03-01T01:52:39.386Z,66.70
2019-03-01T01:53:39.372Z,82.80
2019-03-01T01:54:39.364Z,86.90
2019-03-01T01:55:39.343Z,83.00
2019-03-01T01:56:39.341Z,83.90
2019-03-01T01:57:39.340Z,84.40
2019-03-01T01:58:39.314Z,84.60
2019-03-01T01:59:39.300Z,86.90
2019-03-01T02:00:39.292Z,89.80
2019-03-01T02:01:39.302Z,86.10
2019-03-01T02:02:39.282Z,82.30
2019-03-01T02:03:39.256Z,80.10
2019-03-01T02:04:39.242Z,81.20
2019-03-01T02:05:39.227Z,79.30
2019-03-01T02:06:39.219Z,79.70
2019-03-01T02:07:39.224Z,87.40
2019-03-01T02:08:39.192Z,79.80
2019-03-01T02:09:39.179Z,82.80
2019-03-01T02:10:39.176Z,80.60
2019-03-01T02:11:39.163Z,84.40
2019-03-01T02:12:39.171Z,79.00
2019-03-01T02:13:39.132Z,76.30
2019-03-01T02:14:39.120Z,83.60
2019-03-01T02:15:39.113Z,77.90
2019-03-01T02:16:39.110Z,82.10
2019-03-01T02:17:39.110Z,80.10
2019-03-01T02:18:39.078Z,82.50
2019-03-01T02:19:39.081Z,78.90
2019-03-01T02:20:39.058Z,80.40
2019-03-01T02:21:39.068Z,80.40
2019-03-01T02:22:39.058Z,80.10
2019-03-01T02:23:40.207Z,80.70
2019-03-01T02:24:39.010Z,79.10
2019-03-01T02:25:38.997Z,78.40
2019-03-01T02:26:38.989Z,79.60
2019-03-01T02:27:38.981Z,78.80
2019-03-01T02:28:38.977Z,75.90
2019-03-01T02:29:38.952Z,77.10
2019-03-01T02:30:38.977Z,76.10
2019-03-01T02:31:38.960Z,80.30
2019-03-01T02:32:38.916Z,79.70
2019-03-01T02:33:38.929Z,77.80
2019-03-01T02:34:38.923Z,79.30
2019-03-01T02:35:38.886Z,77.80
2019-03-01T02:36:38.882Z,86.60
2019-03-01T02:37:38.862Z,79.90
2019-03-01T02:38:38.876Z,78.50
2019-03-01T02:39:38.841Z,77.20
2019-03-01T02:40:38.821Z,81.90
2019-03-01T02:41:38.824Z,81.90
2019-03-01T02:42:38.800Z,76.30
2019-03-01T02:43:38.812Z,83.60
2019-03-01T02:44:38.782Z,75.00
2019-03-01T02:45:38.768Z,77.70
2019-03-01T02:46:38.756Z,75.60
2019-03-01T02:47:38.752Z,81.80
2019-03-01T02:48:38.762Z,80.80
2019-03-01T02:49:38.728Z,78.30
2019-03-01T02:50:38.720Z,80.00
2019-03-01T02:51:38.705Z,74.40
2019-03-01T02:52:38.681Z,74.80
2019-03-01T02:53:38.696Z,78.20
2019-03-01T02:54:38.690Z,78.00
2019-03-01T02:55:38.666Z,70.40
2019-03-01T02:56:38.648Z,75.00
2019-03-01T02:57:38.660Z,75.90
2019-03-01T02:58:38.650Z,74.80
2019-03-01T02:59:38.778Z,74.80
2019-03-01T03:00:38.634Z,72.70
2019-03-01T03:01:38.608Z,72.20
2019-03-01T03:02:38.578Z,71.90
2019-03-01T03:03:38.597Z,73.60
2019-03-01T03:04:38.567Z,74.30
2019-03-01T03:05:38.544Z,70.00
2019-03-01T03:06:38.543Z,69.70
2019-03-01T03:07:38.515Z,69.50
2019-03-01T03:08:38.513Z,71.30
2019-03-01T03:09:38.535Z,74.70
2019-03-01T03:10:38.485Z,70.50
2019-03-01T03:11:38.485Z,70.90
2019-03-01T03:12:38.486Z,72.20
2019-03-01T03:13:38.475Z,74.20
2019-03-01T03:14:38.459Z,69.70
2019-03-01T03:15:38.463Z,67.70
2019-03-01T03:16:38.426Z,66.70
2019-03-01T03:17:38.412Z,65.10
2019-03-01T03:18:38.412Z,69.60
2019-03-01T03:19:38.406Z,65.30
2019-03-01T03:20:38.371Z,65.30
2019-03-01T03:21:38.357Z,68.60
2019-03-01T03:22:38.349Z,71.20
2019-03-01T03:23:38.335Z,69.70
2019-03-01T03:24:38.347Z,85.80
2019-03-01T03:25:38.358Z,91.90
2019-03-01T03:26:38.305Z,75.40
2019-03-01T03:27:38.289Z,67.60
2019-03-01T03:28:38.281Z,64.50
2019-03-01T03:29:38.281Z,69.30
2019-03-01T03:30:38.265Z,65.50
2019-03-01T03:31:38.265Z,66.30
2019-03-01T03:32:38.231Z,69.40
2019-03-01T03:33:38.239Z,67.40
2019-03-01T03:34:38.235Z,68.40
2019-03-01T03:35:38.199Z,65.40
2019-03-01T03:36:38.191Z,67.50
2019-03-01T03:37:38.189Z,72.60
2019-03-01T03:38:38.164Z,70.00
2019-03-01T03:39:38.168Z,68.40
2019-03-01T03:40:38.135Z,68.30
2019-03-01T03:41:38.128Z,70.20
2019-03-01T03:42:38.129Z,66.80
2019-03-01T03:43:38.106Z,68.40
2019-03-01T03:44:38.120Z,66.90
2019-03-01T03:45:38.105Z,68.40
2019-03-01T03:46:38.080Z,73.30
2019-03-01T03:47:38.068Z,68.00
2019-03-01T03:48:38.047Z,72.30
2019-03-01T03:49:38.096Z,73.60
2019-03-01T03:50:38.025Z,71.40
2019-03-01T03:51:38.010Z,67.20
2019-03-01T03:52:38.003Z,73.50
2019-03-01T03:53:37.993Z,72.60
2019-03-01T03:54:38.030Z,75.50
2019-03-01T03:55:37.984Z,65.70
2019-03-01T03:56:37.961Z,71.20
2019-03-01T03:57:37.957Z,75.20
2019-03-01T03:58:37.931Z,74.40
2019-03-01T03:59:37.927Z,72.80
2019-03-01T04:00:37.938Z,72.10
2019-03-01T04:01:37.924Z,72.40
2019-03-01T04:02:37.902Z,75.70
2019-03-01T04:03:37.877Z,70.70
2019-03-01T04:04:37.876Z,76.50
2019-03-01T04:05:37.866Z,75.40
2019-03-01T04:06:37.835Z,72.20
2019-03-01T04:07:37.837Z,79.80
2019-03-01T04:08:37.834Z,77.40
2019-03-01T04:09:37.812Z,73.80
2019-03-01T04:10:37.811Z,79.00
2019-03-01T04:11:37.790Z,75.40
2019-03-01T04:12:37.792Z,70.90
2019-03-01T04:13:37.760Z,75.00
2019-03-01T04:14:37.749Z,76.70
2019-03-01T04:15:37.767Z,77.20
2019-03-01T04:16:37.723Z,75.10
2019-03-01T04:17:37.722Z,74.70
2019-03-01T04:18:37.703Z,78.70
2019-03-01T04:19:37.686Z,73.00
2019-03-01T04:20:37.675Z,80.70
2019-03-01T04:21:37.703Z,76.30
2019-03-01T04:22:37.667Z,75.20
2019-03-01T04:23:37.652Z,73.10
2019-03-01T04:24:37.626Z,75.10
2019-03-01T04:25:37.629Z,79.60
2019-03-01T04:26:37.630Z,79.20
2019-03-01T04:27:37.596Z,72.10
2019-03-01T04:28:37.607Z,75.80
2019-03-01T04:29:37.576Z,73.60
2019-03-01T04:30:37.565Z,68.80
2019-03-01T04:31:37.572Z,76.90
2019-03-01T04:32:37.547Z,76.20
2019-03-01T04:33:37.536Z,77.40
2019-03-01T04:34:37.520Z,77.80
2019-03-01T04:35:37.540Z,74.80
2019-03-01T04:36:37.516Z,73.50
2019-03-01T04:37:37.482Z,74.90
2019-03-01T04:38:37.477Z,74.10
2019-03-01T04:39:37.508Z,75.20
2019-03-01T04:40:37.463Z,81.40
2019-03-01T04:41:37.461Z,76.80
2019-03-01T04:42:37.429Z,79.60
2019-03-01T04:43:37.408Z,83.90
2019-03-01T04:44:37.406Z,78.30
2019-03-01T04:45:37.407Z,82.80
2019-03-01T04:46:37.399Z,84.30
2019-03-01T04:47:37.371Z,76.90
2019-03-01T04:48:37.358Z,76.10
2019-03-01T04:49:37.348Z,74.60
2019-03-01T04:50:37.337Z,71.60
2019-03-01T04:51:40.158Z,74.60
2019-03-01T04:52:37.310Z,76.80
2019-03-01T04:53:37.300Z,75.80
2019-03-01T04:54:37.285Z,76.90
2019-03-01T04:55:37.277Z,75.20
2019-03-01T04:56:37.302Z,76.70
2019-03-01T04:57:37.257Z,73.30
2019-03-01T04:58:37.242Z,79.80
2019-03-01T04:59:37.238Z,72.20
2019-03-01T05:00:37.227Z,81.20
2019-03-01T05:01:37.215Z,75.20
2019-03-01T05:02:37.230Z,77.50
2019-03-01T05:03:37.181Z,74.90
2019-03-01T05:04:37.181Z,83.70
2019-03-01T05:05:37.162Z,78.00
2019-03-01T05:06:37.158Z,81.00
2019-03-01T05:07:37.161Z,83.20
2019-03-01T05:08:37.134Z,78.00
2019-03-01T05:09:37.118Z,77.40
2019-03-01T05:10:37.106Z,77.30
2019-03-01T05:11:37.091Z,82.90
2019-03-01T05:12:37.109Z,79.90
2019-03-01T05:13:37.069Z,79.40
2019-03-01T05:14:37.068Z,72.40
2019-03-01T05:15:37.059Z,79.00
2019-03-01T05:16:37.044Z,83.00
2019-03-01T05:17:37.042Z,73.80
2019-03-01T05:18:37.071Z,79.90
2019-03-01T05:19:37.006Z,80.70
2019-03-01T05:20:36.996Z,72.80
2019-03-01T05:21:37.003Z,79.10
2019-03-01T05:22:36.993Z,76.40
2019-03-01T05:23:36.961Z,76.60
2019-03-01T05:24:36.948Z,73.90
2019-03-01T05:25:36.952Z,73.50
2019-03-01T05:26:36.919Z,73.90
2019-03-01T05:27:36.934Z,77.10
2019-03-01T05:28:36.913Z,78.00
2019-03-01T05:29:37.051Z,73.40
2019-03-01T05:30:36.884Z,74.90
2019-03-01T05:31:36.871Z,72.90
2019-03-01T05:32:36.898Z,81.20
2019-03-01T05:33:36.857Z,69.80
2019-03-01T05:34:36.835Z,76.20
2019-03-01T05:35:36.821Z,77.40
2019-03-01T05:36:36.811Z,78.40
2019-03-01T05:37:36.821Z,70.10
2019-03-01T05:38:36.792Z,75.30
2019-03-01T05:39:36.781Z,76.20
2019-03-01T05:40:36.761Z,73.20
2019-03-01T05:41:36.760Z,76.70
2019-03-01T05:42:36.761Z,75.80
2019-03-01T05:43:36.737Z,70.70
2019-03-01T05:44:36.732Z,72.80
2019-03-01T05:45:36.710Z,73.60
2019-03-01T05:46:36.695Z,73.40
2019-03-01T05:47:36.707Z,73.70
2019-03-01T05:48:36.676Z,77.60
2019-03-01T05:49:36.658Z,78.40
2019-03-01T05:50:36.672Z,76.30
2019-03-01T05:51:36.638Z,72.80
2019-03-01T05:52:36.639Z,77.60
2019-03-01T05:53:36.617Z,72.40
2019-03-01T05:54:36.608Z,77.40
2019-03-01T05:55:36.601Z,74.40
2019-03-01T05:56:36.593Z,76.90
2019-03-01T05:57:36.638Z,72.50
2019-03-01T05:58:36.575Z,74.40
2019-03-01T05:59:36.573Z,75.00
2019-03-01T06:00:36.545Z,75.00
2019-03-01T06:01:36.535Z,79.00
2019-03-01T06:02:36.558Z,77.30
2019-03-01T06:03:36.532Z,73.20
2019-03-01T06:04:36.507Z,73.90
2019-03-01T06:05:36.491Z,74.30
2019-03-01T06:06:36.486Z,74.90
2019-03-01T06:07:36.458Z,76.70
2019-03-01T06:08:36.539Z,75.20
2019-03-01T06:09:36.433Z,76.90
2019-03-01T06:10:36.424Z,69.60
2019-03-01T06:11:36.411Z,73.90
2019-03-01T06:12:36.414Z,75.50
2019-03-01T06:13:36.418Z,71.10
2019-03-01T06:14:36.376Z,75.00
2019-03-01T06:15:36.386Z,76.90
2019-03-01T06:16:36.356Z,75.90
2019-03-01T06:17:36.346Z,74.30
2019-03-01T06:18:36.360Z,80.90
2019-03-01T06:19:36.318Z,79.50
2019-03-01T06:20:36.309Z,76.50
2019-03-01T06:21:36.320Z,85.80
2019-03-01T06:22:36.304Z,76.50
2019-03-01T06:23:36.292Z,80.30
2019-03-01T06:24:36.286Z,86.30
2019-03-01T06:25:36.251Z,84.00
2019-03-01T06:26:36.236Z,78.30
2019-03-01T06:27:36.229Z,85.60
2019-03-01T06:28:36.236Z,84.40
2019-03-01T06:29:36.216Z,81.00
2019-03-01T06:30:36.199Z,83.40
2019-03-01T06:31:36.179Z,84.00
2019-03-01T06:32:36.191Z,81.20
2019-03-01T06:33:36.186Z,86.30
2019-03-01T06:34:36.148Z,80.20
2019-03-01T06:35:36.144Z,84.20
2019-03-01T06:36:36.122Z,83.40
2019-03-01T06:37:36.118Z,84.50
2019-03-01T06:38:36.191Z,86.50
2019-03-01T06:39:36.102Z,83.30
2019-03-01T06:40:36.086Z,77.20
2019-03-01T06:41:36.070Z,83.10
2019-03-01T06:42:36.079Z,86.00
2019-03-01T06:43:36.050Z,81.50
2019-03-01T06:44:36.052Z,87.40
2019-03-01T06:45:36.046Z,86.80
2019-03-01T06:46:36.019Z,90.00
2019-03-01T06:47:36.011Z,87.30
2019-03-01T06:48:36.008Z,88.00
2019-03-01T06:49:35.998Z,81.30
2019-03-01T06:50:35.971Z,83.10
2019-03-01T06:51:35.957Z,86.30
2019-03-01T06:52:35.946Z,93.90
2019-03-01T06:53:35.934Z,94.10
2019-03-01T06:54:35.940Z,93.20
2019-03-01T06:55:35.907Z,95.50
2019-03-01T06:56:35.915Z,95.20
2019-03-01T06:57:35.890Z,91.20
2019-03-01T06:58:35.899Z,92.80
2019-03-01T06:59:35.888Z,91.80
2019-03-01T07:00:35.853Z,94.30
2019-03-01T07:01:35.843Z,92.30
2019-03-01T07:02:35.847Z,84.00
2019-03-01T07:03:35.817Z,88.70
2019-03-01T07:04:35.827Z,80.60
2019-03-01T07:05:35.801Z,89.40
2019-03-01T07:06:35.789Z,84.90
2019-03-01T07:07:35.795Z,82.20
2019-03-01T07:08:35.771Z,82.10
2019-03-01T07:09:35.780Z,82.50
2019-03-01T07:10:35.739Z,81.40
2019-03-01T07:11:35.732Z,78.00
2019-03-01T07:12:35.716Z,78.80
2019-03-01T07:13:35.739Z,77.70
2019-03-01T07:14:35.721Z,80.60
2019-03-01T07:15:35.685Z,75.00
2019-03-01T07:16:35.676Z,78.20
2019-03-01T07:17:35.665Z,79.20
2019-03-01T07:18:35.655Z,79.00
2019-03-01T07:19:35.737Z,80.70
2019-03-01T07:20:35.629Z,78.10
2019-03-01T07:21:35.613Z,68.70
2019-03-01T07:22:35.618Z,76.30
2019-03-01T07:23:37.028Z,81.50
2019-03-01T07:24:35.603Z,79.30
2019-03-01T07:25:35.565Z,84.20
2019-03-01T07:26:35.568Z,81.80
2019-03-01T07:27:35.553Z,81.20
2019-03-01T07:28:35.537Z,82.70
2019-03-01T07:29:35.559Z,86.70
2019-03-01T07:30:35.517Z,78.80
2019-03-01T07:31:35.499Z,80.50
2019-03-01T07:32:35.492Z,77.00
2019-03-01T07:33:35.480Z,78.50
2019-03-01T07:34:35.470Z,76.70
2019-03-01T07:35:35.504Z,78.60
2019-03-01T07:36:35.447Z,74.90
2019-03-01T07:37:35.435Z,79.80
2019-03-01T07:38:35.423Z,77.20
2019-03-01T07:39:35.411Z,85.10
2019-03-01T07:40:35.433Z,88.00
2019-03-01T07:41:35.386Z,92.40
2019-03-01T07:42:35.375Z,91.50
2019-03-01T07:43:35.361Z,81.60
2019-03-01T07:44:35.357Z,77.70
2019-03-01T07:45:35.366Z,82.00
2019-03-01T07:46:35.332Z,84.70
2019-03-01T07:47:35.329Z,84.40
2019-03-01T07:48:35.305Z,78.90
2019-03-01T07:49:35.298Z,80.10
2019-03-01T07:50:35.315Z,82.10
2019-03-01T07:51:36.048Z,80.80
2019-03-01T07:52:35.263Z,80.00
2019-03-01T07:53:36.147Z,84.40
2019-03-01T07:54:36.254Z,83.90
2019-03-01T07:55:35.278Z,81.80
2019-03-01T07:56:36.891Z,77.00
2019-03-01T07:57:35.209Z,84.30
2019-03-01T07:58:35.197Z,76.80
2019-03-01T07:59:38.282Z,79.80
2019-03-01T08:00:35.167Z,74.50
2019-03-01T08:01:35.181Z,83.50
2019-03-01T08:02:35.893Z,79.60
2019-03-01T08:03:35.142Z,71.90
2019-03-01T08:04:35.129Z,82.50
2019-03-01T08:05:35.613Z,82.30
2019-03-01T08:06:35.127Z,78.50
2019-03-01T08:07:35.314Z,76.70
2019-03-01T08:08:38.989Z,86.30
2019-03-01T08:09:36.148Z,83.60
2019-03-01T08:10:35.073Z,78.80
2019-03-01T08:11:35.076Z,80.80
2019-03-01T08:12:35.037Z,86.80
2019-03-01T08:13:35.044Z,78.10
2019-03-01T08:14:35.056Z,81.80
2019-03-01T08:15:35.009Z,79.10
2019-03-01T08:16:35.023Z,81.40
2019-03-01T08:17:34.982Z,78.80
2019-03-01T08:18:34.978Z,88.20
2019-03-01T08:19:34.959Z,89.50
2019-03-01T08:20:35.575Z,80.00
2019-03-01T08:21:34.953Z,84.60
2019-03-01T08:22:44.797Z,83.10
2019-03-01T08:23:36.008Z,84.50
2019-03-01T08:24:34.913Z,86.50
2019-03-01T08:25:34.916Z,83.10
2019-03-01T08:26:34.994Z,85.00
2019-03-01T08:27:34.863Z,77.60
2019-03-01T08:28:34.873Z,79.50
2019-03-01T08:29:34.912Z,79.70
2019-03-01T08:30:34.825Z,84.30
2019-03-01T08:31:34.858Z,88.30
2019-03-01T08:32:34.806Z,90.10
2019-03-01T08:33:34.822Z,94.20
2019-03-01T08:34:35.331Z,98.10
2019-03-01T08:35:34.782Z,93.80
2019-03-01T08:36:34.796Z,98.40
2019-03-01T08:37:34.757Z,96.00
2019-03-01T08:38:34.747Z,100.00
2019-03-01T08:39:36.664Z,96.10
2019-03-01T08:40:34.722Z,103.40
2019-03-01T08:41:34.718Z,107.40
2019-03-01T08:42:36.444Z,107.90
2019-03-01T08:43:35.812Z,104.80
2019-03-01T08:44:34.686Z,105.40
2019-03-01T08:45:34.680Z,101.00
2019-03-01T08:46:34.650Z,99.60
2019-03-01T08:47:34.668Z,103.10
2019-03-01T08:48:34.888Z,104.80
2019-03-01T08:49:34.628Z,94.80
2019-03-01T08:50:34.605Z,96.10
2019-03-01T08:51:34.597Z,92.20
2019-03-01T08:52:37.267Z,92.70
2019-03-01T08:53:35.569Z,92.50
2019-03-01T08:54:34.564Z,93.50
2019-03-01T08:55:35.559Z,84.60
2019-03-01T08:56:34.539Z,87.70
2019-03-01T08:57:43.771Z,88.70
2019-03-01T08:58:37.724Z,85.30
2019-03-01T08:59:35.501Z,87.70
2019-03-01T09:00:34.503Z,91.00
2019-03-01T09:01:34.479Z,83.10
2019-03-01T09:02:34.500Z,92.20
2019-03-01T09:03:34.469Z,91.20
2019-03-01T09:04:37.974Z,94.70
2019-03-01T09:05:34.436Z,93.40
2019-03-01T09:06:34.422Z,94.60
2019-03-01T09:07:34.443Z,91.50
2019-03-01T09:08:34.402Z,89.30
2019-03-01T09:09:34.382Z,97.00
2019-03-01T09:10:34.372Z,87.30
2019-03-01T09:11:34.378Z,92.30
2019-03-01T09:12:34.395Z,86.40
2019-03-01T09:13:36.067Z,83.00
2019-03-01T09:14:34.344Z,91.40
2019-03-01T09:15:34.329Z,90.90
2019-03-01T09:16:34.310Z,88.10
2019-03-01T09:17:34.302Z,89.50
2019-03-01T09:18:34.310Z,92.10
2019-03-01T09:19:34.275Z,93.10
2019-03-01T09:20:38.485Z,88.90
2019-03-01T09:21:34.247Z,88.60
2019-03-01T09:22:34.249Z,90.00
2019-03-01T09:23:34.287Z,82.00
2019-03-01T09:24:34.221Z,81.90
2019-03-01T09:25:34.329Z,79.50
2019-03-01T09:26:35.659Z,79.40
2019-03-01T09:27:34.179Z,79.20
2019-03-01T09:28:38.576Z,84.10
2019-03-01T09:29:41.757Z,87.50
2019-03-01T09:30:35.151Z,95.20
2019-03-01T09:31:34.146Z,96.40
2019-03-01T09:32:34.862Z,89.20
2019-03-01T09:33:34.138Z,94.50
2019-03-01T09:34:34.126Z,93.90
2019-03-01T09:35:34.091Z,95.40
2019-03-01T09:36:34.076Z,103.90
2019-03-01T09:37:34.080Z,103.10
2019-03-01T09:38:34.089Z,99.90
2019-03-01T09:39:34.053Z,108.80
2019-03-01T09:40:34.041Z,116.60
2019-03-01T09:41:36.601Z,106.40
2019-03-01T09:42:35.022Z,107.50
2019-03-01T09:43:34.019Z,108.50
2019-03-01T09:44:34.651Z,108.30
2019-03-01T09:45:36.594Z,111.20
2019-03-01T09:46:33.963Z,118.00
2019-03-01T09:47:37.105Z,107.90
2019-03-01T09:48:33.959Z,115.80
2019-03-01T09:49:33.927Z,109.40
2019-03-01T09:50:34.581Z,105.60
2019-03-01T09:51:33.919Z,111.80
2019-03-01T09:52:33.897Z,117.10
2019-03-01T09:53:35.135Z,102.10
2019-03-01T09:54:33.876Z,106.70
2019-03-01T09:55:34.827Z,107.80
2019-03-01T09:56:33.855Z,108.40
2019-03-01T09:57:33.841Z,108.80
2019-03-01T09:58:33.853Z,113.90
2019-03-01T09:59:33.817Z,109.80
2019-03-01T10:00:33.815Z,110.90
2019-03-01T10:01:33.793Z,109.10
2019-03-01T10:02:33.785Z,111.60
2019-03-01T10:03:33.804Z,107.00
2019-03-01T10:04:33.758Z,123.00
2019-03-01T10:05:33.754Z,115.80
2019-03-01T10:06:38.060Z,124.80
2019-03-01T10:07:33.730Z,117.10
2019-03-01T10:08:33.720Z,119.40
2019-03-01T10:09:33.732Z,126.80
2019-03-01T10:10:33.697Z,121.60
2019-03-01T10:11:33.683Z,118.30
2019-03-01T10:12:33.675Z,112.80
2019-03-01T10:14:33.676Z,120.90
2019-03-01T10:15:33.657Z,116.80
2019-03-01T10:16:33.628Z,112.40
2019-03-01T10:17:33.615Z,113.70
2019-03-01T10:18:33.611Z,119.90
2019-03-01T10:19:33.615Z,113.10
2019-03-01T10:20:33.587Z,126.60
2019-03-01T10:21:33.571Z,120.40
2019-03-01T10:22:33.572Z,130.80
2019-03-01T10:23:33.549Z,118.40
2019-03-01T10:24:33.560Z,134.70
2019-03-01T10:25:33.654Z,126.50
2019-03-01T10:26:33.515Z,129.70
2019-03-01T10:27:33.501Z,130.90
2019-03-01T10:28:33.488Z,128.30
2019-03-01T10:29:33.503Z,131.90
2019-03-01T10:30:33.473Z,128.40
2019-03-01T10:31:33.493Z,129.40
2019-03-01T10:32:33.449Z,136.10
2019-03-01T10:33:33.440Z,133.50
2019-03-01T10:34:33.435Z,133.70
2019-03-01T10:35:33.412Z,130.50
2019-03-01T10:36:33.414Z,132.90
2019-03-01T10:37:33.393Z,127.70
2019-03-01T10:38:33.373Z,136.70
2019-03-01T10:39:33.391Z,130.10
2019-03-01T10:40:33.369Z,131.80
2019-03-01T10:41:33.346Z,130.90
2019-03-01T10:42:33.325Z,150.90
2019-03-01T10:43:33.324Z,136.80
2019-03-01T10:44:33.325Z,142.30
2019-03-01T10:45:33.298Z,138.70
2019-03-01T10:46:33.287Z,142.50
2019-03-01T10:47:33.280Z,143.80
2019-03-01T10:48:33.286Z,149.30
2019-03-01T10:49:33.271Z,136.40
2019-03-01T10:50:33.239Z,152.30
2019-03-01T10:51:33.226Z,140.10
2019-03-01T10:52:33.223Z,143.50
2019-03-01T10:53:33.202Z,148.60
2019-03-01T10:54:33.230Z,145.40
2019-03-01T10:55:33.186Z,143.80
2019-03-01T10:56:33.170Z,153.30
2019-03-01T10:57:33.164Z,149.40
2019-03-01T10:58:33.158Z,143.10
2019-03-01T10:59:33.134Z,146.50
2019-03-01T11:00:33.144Z,141.80
2019-03-01T11:01:33.131Z,146.60
2019-03-01T11:02:33.120Z,157.20
2019-03-01T11:03:33.093Z,155.50
2019-03-01T11:04:33.081Z,144.60
2019-03-01T11:05:33.085Z,155.00
2019-03-01T11:06:33.064Z,141.70
2019-03-01T11:07:33.051Z,158.80
2019-03-01T11:08:33.032Z,140.90
2019-03-01T11:09:33.022Z,144.50
2019-03-01T11:10:33.041Z,145.90
2019-03-01T11:11:33.018Z,152.00
2019-03-01T11:12:32.993Z,150.30
2019-03-01T11:13:32.978Z,135.50
2019-03-01T11:14:32.966Z,140.90
2019-03-01T11:15:32.973Z,135.90
2019-03-01T11:16:32.944Z,142.70
2019-03-01T11:17:32.933Z,144.10
2019-03-01T11:18:32.919Z,134.80
2019-03-01T11:19:32.918Z,146.40
2019-03-01T11:20:32.924Z,138.70
2019-03-01T11:21:32.884Z,141.40
2019-03-01T11:22:32.874Z,144.40
2019-03-01T11:23:32.870Z,152.60
2019-03-01T11:24:32.858Z,150.10
2019-03-01T11:25:32.872Z,146.90
2019-03-01T11:26:32.825Z,158.20
2019-03-01T11:27:32.816Z,158.40
2019-03-01T11:28:32.808Z,148.00
2019-03-01T11:29:32.799Z,145.90
2019-03-01T11:30:32.809Z,150.20
2019-03-01T11:31:32.781Z,152.20
2019-03-01T11:32:32.756Z,149.40
2019-03-01T11:33:32.754Z,158.50
2019-03-01T11:34:32.764Z,158.20
2019-03-01T11:35:32.745Z,151.20
2019-03-01T11:36:32.716Z,145.30
2019-03-01T11:37:32.703Z,135.20
2019-03-01T11:38:32.687Z,143.30
2019-03-01T11:39:32.676Z,145.30
2019-03-01T11:40:32.691Z,127.90
2019-03-01T11:41:32.684Z,125.40
2019-03-01T11:42:32.648Z,127.10
2019-03-01T11:43:32.634Z,129.40
2019-03-01T11:44:32.630Z,131.10
2019-03-01T11:45:32.634Z,128.50
2019-03-01T11:46:32.596Z,133.80
2019-03-01T11:47:32.587Z,135.90
2019-03-01T11:48:32.580Z,124.40
2019-03-01T11:49:32.566Z,126.80
2019-03-01T11:50:32.585Z,130.00
2019-03-01T11:51:32.564Z,133.50
2019-03-01T11:52:32.531Z,130.90
2019-03-01T11:53:32.516Z,128.70
2019-03-01T11:54:32.508Z,133.50
2019-03-01T11:55:32.493Z,127.80
2019-03-01T11:56:32.535Z,128.90
2019-03-01T11:57:32.473Z,123.40
2019-03-01T11:58:32.475Z,120.10
2019-03-01T11:59:32.457Z,120.50
2019-03-01T12:00:32.485Z,121.50
2019-03-01T12:01:32.442Z,126.70
2019-03-01T12:02:32.408Z,122.10
2019-03-01T12:03:32.437Z,118.70
2019-03-01T12:04:32.391Z,114.40
2019-03-01T12:05:32.386Z,109.80
2019-03-01T12:06:32.392Z,107.50
2019-03-01T12:07:32.355Z,105.40
2019-03-01T12:08:32.347Z,108.90
2019-03-01T12:09:32.340Z,103.60
2019-03-01T12:10:32.326Z,108.20
2019-03-01T12:11:32.340Z,98.30
2019-03-01T12:12:32.299Z,100.00
2019-03-01T12:13:32.285Z,102.80
2019-03-01T12:14:32.281Z,107.80
2019-03-01T12:15:32.262Z,98.50
2019-03-01T12:16:32.283Z,98.70
2019-03-01T12:17:32.263Z,94.20
2019-03-01T12:18:32.233Z,101.40
2019-03-01T12:19:32.223Z,98.20
2019-03-01T12:20:32.208Z,102.10
2019-03-01T12:21:32.245Z,90.20
2019-03-01T12:22:32.183Z,92.70
2019-03-01T12:23:32.176Z,92.20
2019-03-01T12:24:32.169Z,89.20
2019-03-01T12:25:32.157Z,85.90
2019-03-01T12:26:32.140Z,86.40
2019-03-01T12:27:32.143Z,88.70
2019-03-01T12:28:32.123Z,85.30
2019-03-01T12:29:32.110Z,89.60
2019-03-01T12:30:32.095Z,86.10
2019-03-01T12:31:32.097Z,86.00
2019-03-01T12:32:32.111Z,76.40
2019-03-01T12:33:32.087Z,79.80
2019-03-01T12:34:32.053Z,80.40
2019-03-01T12:35:32.036Z,76.10
2019-03-01T12:36:32.034Z,83.70
2019-03-01T12:37:32.031Z,77.60
2019-03-01T12:38:32.002Z,80.80
2019-03-01T12:39:31.993Z,80.00
2019-03-01T12:40:31.989Z,74.80
2019-03-01T12:41:31.963Z,80.20
2019-03-01T12:42:31.979Z,74.30
2019-03-01T12:43:31.981Z,78.70
2019-03-01T12:44:31.940Z,74.50
2019-03-01T12:45:31.939Z,81.10
2019-03-01T12:46:31.919Z,79.10
2019-03-01T12:47:31.905Z,79.50
2019-03-01T12:48:31.896Z,83.20